sensor_id;sensor_type;location;lat;lon;timestamp;P1;durP1;ratioP1;P2;durP2;ratioP2
12958;SDS011;6544;51.666;6.634;2022-07-18T00:00:19;5.63;;;2.00;;
12958;SDS011;6544;51.666;6.634;2022-07-18T00:02:46;5.85;;;2.50;;
12958;SDS011;6544;51.666;6.634;2022-07-18T00:05:14;3.58;;;2.30;;
12958;SDS011;6544;51.666;6.634;2022-07-18T00:07:41;4.25;;;2.25;;
12958;SDS011;6544;51.666;6.634;2022-07-18T00:10:08;4.50;;;2.35;;
12958;SDS011;6544;51.666;6.634;2022-07-18T00:12:35;4.00;;;2.13;;
12958;SDS011;6544;51.666;6.634;2022-07-18T00:15:02;3.92;;;1.90;;
12958;SDS011;6544;51.666;6.634;2022-07-18T00:17:30;3.95;;;2.05;;
12958;SDS011;6544;51.666;6.634;2022-07-18T00:19:57;5.30;;;2.33;;
12958;SDS011;6544;51.666;6.634;2022-07-18T00:22:25;3.20;;;1.95;;
12958;SDS011;6544;51.666;6.634;2022-07-18T00:24:52;3.70;;;2.17;;
12958;SDS011;6544;51.666;6.634;2022-07-18T00:27:19;2.70;;;1.80;;
12958;SDS011;6544;51.666;6.634;2022-07-18T00:29:46;4.40;;;2.53;;
12958;SDS011;6544;51.666;6.634;2022-07-18T00:32:13;2.20;;;1.70;;
12958;SDS011;6544;51.666;6.634;2022-07-18T00:34:40;5.30;;;1.95;;
12958;SDS011;6544;51.666;6.634;2022-07-18T00:37:07;4.72;;;2.20;;
12958;SDS011;6544;51.666;6.634;2022-07-18T00:39:36;6.90;;;2.03;;
12958;SDS011;6544;51.666;6.634;2022-07-18T00:42:03;3.42;;;1.98;;
12958;SDS011;6544;51.666;6.634;2022-07-18T00:44:30;5.35;;;2.00;;
12958;SDS011;6544;51.666;6.634;2022-07-18T00:46:58;3.58;;;2.05;;
12958;SDS011;6544;51.666;6.634;2022-07-18T00:49:26;3.75;;;2.00;;
12958;SDS011;6544;51.666;6.634;2022-07-18T00:51:53;5.32;;;1.88;;
12958;SDS011;6544;51.666;6.634;2022-07-18T00:54:22;3.55;;;2.08;;
12958;SDS011;6544;51.666;6.634;2022-07-18T00:56:53;3.95;;;2.28;;
12958;SDS011;6544;51.666;6.634;2022-07-18T00:59:20;4.65;;;2.30;;
12958;SDS011;6544;51.666;6.634;2022-07-18T01:01:47;3.67;;;2.20;;
12958;SDS011;6544;51.666;6.634;2022-07-18T01:04:14;3.00;;;1.90;;
12958;SDS011;6544;51.666;6.634;2022-07-18T01:06:42;3.45;;;2.28;;
12958;SDS011;6544;51.666;6.634;2022-07-18T01:09:10;4.93;;;2.42;;
12958;SDS011;6544;51.666;6.634;2022-07-18T01:11:37;4.30;;;1.80;;
12958;SDS011;6544;51.666;6.634;2022-07-18T01:14:06;5.82;;;2.20;;
12958;SDS011;6544;51.666;6.634;2022-07-18T01:16:34;3.55;;;1.90;;
12958;SDS011;6544;51.666;6.634;2022-07-18T01:19:01;5.95;;;1.95;;
12958;SDS011;6544;51.666;6.634;2022-07-18T01:21:30;7.10;;;2.60;;
12958;SDS011;6544;51.666;6.634;2022-07-18T01:23:58;2.67;;;2.03;;
12958;SDS011;6544;51.666;6.634;2022-07-18T01:26:25;6.78;;;2.40;;
12958;SDS011;6544;51.666;6.634;2022-07-18T01:28:52;6.15;;;2.30;;
12958;SDS011;6544;51.666;6.634;2022-07-18T01:31:19;5.68;;;2.00;;
12958;SDS011;6544;51.666;6.634;2022-07-18T01:33:46;7.68;;;2.40;;
12958;SDS011;6544;51.666;6.634;2022-07-18T01:36:13;8.77;;;2.47;;
12958;SDS011;6544;51.666;6.634;2022-07-18T01:38:41;4.05;;;2.30;;
12958;SDS011;6544;51.666;6.634;2022-07-18T01:41:08;6.57;;;2.35;;
12958;SDS011;6544;51.666;6.634;2022-07-18T01:43:38;6.07;;;2.45;;
12958;SDS011;6544;51.666;6.634;2022-07-18T01:46:06;6.15;;;2.60;;
12958;SDS011;6544;51.666;6.634;2022-07-18T01:48:36;5.22;;;2.53;;
12958;SDS011;6544;51.666;6.634;2022-07-18T01:51:04;4.90;;;2.45;;
12958;SDS011;6544;51.666;6.634;2022-07-18T01:53:35;4.32;;;2.30;;
12958;SDS011;6544;51.666;6.634;2022-07-18T01:56:03;5.50;;;2.17;;
12958;SDS011;6544;51.666;6.634;2022-07-18T01:58:30;4.75;;;2.10;;
12958;SDS011;6544;51.666;6.634;2022-07-18T02:00:57;4.68;;;2.25;;
12958;SDS011;6544;51.666;6.634;2022-07-18T02:03:24;2.63;;;1.95;;
12958;SDS011;6544;51.666;6.634;2022-07-18T02:05:51;5.40;;;2.45;;
12958;SDS011;6544;51.666;6.634;2022-07-18T02:08:18;4.70;;;2.40;;
12958;SDS011;6544;51.666;6.634;2022-07-18T02:10:45;9.88;;;2.55;;
12958;SDS011;6544;51.666;6.634;2022-07-18T02:13:13;5.03;;;2.40;;
12958;SDS011;6544;51.666;6.634;2022-07-18T02:15:41;6.57;;;2.40;;
12958;SDS011;6544;51.666;6.634;2022-07-18T02:18:08;5.82;;;2.08;;
12958;SDS011;6544;51.666;6.634;2022-07-18T02:20:35;5.25;;;2.28;;
12958;SDS011;6544;51.666;6.634;2022-07-18T02:23:03;11.02;;;2.53;;
12958;SDS011;6544;51.666;6.634;2022-07-18T02:25:32;4.97;;;2.40;;
12958;SDS011;6544;51.666;6.634;2022-07-18T02:27:59;3.90;;;2.00;;
12958;SDS011;6544;51.666;6.634;2022-07-18T02:30:28;5.28;;;2.50;;
12958;SDS011;6544;51.666;6.634;2022-07-18T02:32:55;4.35;;;2.20;;
12958;SDS011;6544;51.666;6.634;2022-07-18T02:35:22;3.67;;;2.33;;
12958;SDS011;6544;51.666;6.634;2022-07-18T02:37:49;5.53;;;2.30;;
12958;SDS011;6544;51.666;6.634;2022-07-18T02:40:15;4.60;;;2.05;;
12958;SDS011;6544;51.666;6.634;2022-07-18T02:42:42;4.95;;;2.38;;
12958;SDS011;6544;51.666;6.634;2022-07-18T02:45:09;3.40;;;2.15;;
12958;SDS011;6544;51.666;6.634;2022-07-18T02:47:38;5.18;;;2.63;;
12958;SDS011;6544;51.666;6.634;2022-07-18T02:50:05;3.60;;;2.15;;
12958;SDS011;6544;51.666;6.634;2022-07-18T02:52:37;3.95;;;2.30;;
12958;SDS011;6544;51.666;6.634;2022-07-18T02:55:05;5.90;;;2.42;;
12958;SDS011;6544;51.666;6.634;2022-07-18T02:57:32;5.10;;;2.30;;
12958;SDS011;6544;51.666;6.634;2022-07-18T02:59:59;4.50;;;2.30;;
12958;SDS011;6544;51.666;6.634;2022-07-18T03:02:26;4.70;;;2.40;;
12958;SDS011;6544;51.666;6.634;2022-07-18T03:04:54;5.63;;;2.60;;
12958;SDS011;6544;51.666;6.634;2022-07-18T03:07:21;3.65;;;2.13;;
12958;SDS011;6544;51.666;6.634;2022-07-18T03:09:48;4.80;;;2.30;;
12958;SDS011;6544;51.666;6.634;2022-07-18T03:12:16;4.93;;;2.72;;
12958;SDS011;6544;51.666;6.634;2022-07-18T03:14:43;5.05;;;2.40;;
12958;SDS011;6544;51.666;6.634;2022-07-18T03:17:10;4.35;;;2.60;;
12958;SDS011;6544;51.666;6.634;2022-07-18T03:19:37;4.43;;;2.40;;
12958;SDS011;6544;51.666;6.634;2022-07-18T03:22:05;3.78;;;2.30;;
12958;SDS011;6544;51.666;6.634;2022-07-18T03:24:32;5.32;;;2.80;;
12958;SDS011;6544;51.666;6.634;2022-07-18T03:26:59;4.80;;;2.40;;
12958;SDS011;6544;51.666;6.634;2022-07-18T03:29:26;6.32;;;2.58;;
12958;SDS011;6544;51.666;6.634;2022-07-18T03:31:53;5.20;;;2.53;;
12958;SDS011;6544;51.666;6.634;2022-07-18T03:34:20;5.28;;;2.65;;
12958;SDS011;6544;51.666;6.634;2022-07-18T03:36:49;4.18;;;2.50;;
12958;SDS011;6544;51.666;6.634;2022-07-18T03:39:17;6.03;;;2.47;;
12958;SDS011;6544;51.666;6.634;2022-07-18T03:41:44;6.18;;;2.60;;
12958;SDS011;6544;51.666;6.634;2022-07-18T03:44:11;5.22;;;2.90;;
12958;SDS011;6544;51.666;6.634;2022-07-18T03:46:38;9.05;;;3.35;;
12958;SDS011;6544;51.666;6.634;2022-07-18T03:49:05;3.65;;;2.55;;
12958;SDS011;6544;51.666;6.634;2022-07-18T03:51:32;5.38;;;2.55;;
12958;SDS011;6544;51.666;6.634;2022-07-18T03:53:58;5.68;;;2.90;;
12958;SDS011;6544;51.666;6.634;2022-07-18T03:56:27;5.00;;;2.70;;
12958;SDS011;6544;51.666;6.634;2022-07-18T03:58:54;6.95;;;3.08;;
12958;SDS011;6544;51.666;6.634;2022-07-18T04:01:21;5.43;;;3.08;;
12958;SDS011;6544;51.666;6.634;2022-07-18T04:03:47;8.27;;;3.03;;
12958;SDS011;6544;51.666;6.634;2022-07-18T04:06:14;5.07;;;2.65;;
12958;SDS011;6544;51.666;6.634;2022-07-18T04:08:41;5.20;;;2.78;;
12958;SDS011;6544;51.666;6.634;2022-07-18T04:11:13;5.60;;;2.80;;
12958;SDS011;6544;51.666;6.634;2022-07-18T04:13:41;5.70;;;2.97;;
12958;SDS011;6544;51.666;6.634;2022-07-18T04:16:08;4.55;;;3.20;;
12958;SDS011;6544;51.666;6.634;2022-07-18T04:18:35;5.60;;;2.40;;
12958;SDS011;6544;51.666;6.634;2022-07-18T04:21:01;5.03;;;2.70;;
12958;SDS011;6544;51.666;6.634;2022-07-18T04:23:28;6.28;;;2.80;;
12958;SDS011;6544;51.666;6.634;2022-07-18T04:25:55;6.68;;;3.10;;
12958;SDS011;6544;51.666;6.634;2022-07-18T04:28:23;7.05;;;2.67;;
12958;SDS011;6544;51.666;6.634;2022-07-18T04:30:51;8.40;;;2.70;;
12958;SDS011;6544;51.666;6.634;2022-07-18T04:33:18;5.13;;;2.78;;
12958;SDS011;6544;51.666;6.634;2022-07-18T04:35:45;5.45;;;2.85;;
12958;SDS011;6544;51.666;6.634;2022-07-18T04:38:13;6.75;;;3.17;;
12958;SDS011;6544;51.666;6.634;2022-07-18T04:40:40;6.07;;;3.15;;
12958;SDS011;6544;51.666;6.634;2022-07-18T04:43:07;5.45;;;2.65;;
12958;SDS011;6544;51.666;6.634;2022-07-18T04:45:35;4.35;;;2.60;;
12958;SDS011;6544;51.666;6.634;2022-07-18T04:48:05;4.68;;;2.60;;
12958;SDS011;6544;51.666;6.634;2022-07-18T04:50:33;5.05;;;2.63;;
12958;SDS011;6544;51.666;6.634;2022-07-18T04:53:00;10.95;;;3.35;;
12958;SDS011;6544;51.666;6.634;2022-07-18T04:55:27;4.45;;;2.70;;
12958;SDS011;6544;51.666;6.634;2022-07-18T04:57:54;6.05;;;3.28;;
12958;SDS011;6544;51.666;6.634;2022-07-18T05:00:23;6.25;;;3.17;;
12958;SDS011;6544;51.666;6.634;2022-07-18T05:02:52;5.40;;;2.83;;
12958;SDS011;6544;51.666;6.634;2022-07-18T05:05:23;4.93;;;2.75;;
12958;SDS011;6544;51.666;6.634;2022-07-18T05:07:50;5.80;;;2.75;;
12958;SDS011;6544;51.666;6.634;2022-07-18T05:10:19;5.07;;;2.85;;
12958;SDS011;6544;51.666;6.634;2022-07-18T05:12:47;11.00;;;3.03;;
12958;SDS011;6544;51.666;6.634;2022-07-18T05:15:17;9.38;;;2.88;;
12958;SDS011;6544;51.666;6.634;2022-07-18T05:17:45;6.55;;;2.80;;
12958;SDS011;6544;51.666;6.634;2022-07-18T05:20:12;4.38;;;2.88;;
12958;SDS011;6544;51.666;6.634;2022-07-18T05:22:42;7.88;;;2.92;;
12958;SDS011;6544;51.666;6.634;2022-07-18T05:25:09;6.13;;;2.88;;
12958;SDS011;6544;51.666;6.634;2022-07-18T05:27:38;8.93;;;3.10;;
12958;SDS011;6544;51.666;6.634;2022-07-18T05:30:06;6.07;;;3.13;;
12958;SDS011;6544;51.666;6.634;2022-07-18T05:32:35;8.80;;;3.10;;
12958;SDS011;6544;51.666;6.634;2022-07-18T05:35:03;4.38;;;2.85;;
12958;SDS011;6544;51.666;6.634;2022-07-18T05:37:31;5.43;;;2.80;;
12958;SDS011;6544;51.666;6.634;2022-07-18T05:40:05;11.70;;;3.10;;
12958;SDS011;6544;51.666;6.634;2022-07-18T05:42:33;7.60;;;2.65;;
12958;SDS011;6544;51.666;6.634;2022-07-18T05:45:00;10.57;;;3.35;;
12958;SDS011;6544;51.666;6.634;2022-07-18T05:47:27;12.63;;;3.60;;
12958;SDS011;6544;51.666;6.634;2022-07-18T05:49:54;6.63;;;2.80;;
12958;SDS011;6544;51.666;6.634;2022-07-18T05:52:21;5.63;;;3.08;;
12958;SDS011;6544;51.666;6.634;2022-07-18T05:54:51;8.95;;;3.15;;
12958;SDS011;6544;51.666;6.634;2022-07-18T05:57:19;10.02;;;3.40;;
12958;SDS011;6544;51.666;6.634;2022-07-18T05:59:46;7.28;;;2.95;;
12958;SDS011;6544;51.666;6.634;2022-07-18T06:02:13;5.65;;;2.63;;
12958;SDS011;6544;51.666;6.634;2022-07-18T06:04:40;5.97;;;2.40;;
12958;SDS011;6544;51.666;6.634;2022-07-18T06:07:07;4.13;;;2.30;;
12958;SDS011;6544;51.666;6.634;2022-07-18T06:09:34;4.60;;;2.15;;
12958;SDS011;6544;51.666;6.634;2022-07-18T06:12:02;4.90;;;2.45;;
12958;SDS011;6544;51.666;6.634;2022-07-18T06:14:31;7.93;;;2.70;;
12958;SDS011;6544;51.666;6.634;2022-07-18T06:16:58;5.93;;;2.65;;
12958;SDS011;6544;51.666;6.634;2022-07-18T06:19:25;9.85;;;3.30;;
12958;SDS011;6544;51.666;6.634;2022-07-18T06:21:52;7.93;;;2.85;;
12958;SDS011;6544;51.666;6.634;2022-07-18T06:24:19;9.93;;;2.60;;
12958;SDS011;6544;51.666;6.634;2022-07-18T06:26:46;11.40;;;2.90;;
12958;SDS011;6544;51.666;6.634;2022-07-18T06:29:14;8.18;;;2.85;;
12958;SDS011;6544;51.666;6.634;2022-07-18T06:31:43;7.32;;;2.70;;
12958;SDS011;6544;51.666;6.634;2022-07-18T06:34:10;13.40;;;3.30;;
12958;SDS011;6544;51.666;6.634;2022-07-18T06:36:40;9.43;;;3.63;;
12958;SDS011;6544;51.666;6.634;2022-07-18T06:39:07;8.50;;;2.85;;
12958;SDS011;6544;51.666;6.634;2022-07-18T06:41:36;12.75;;;3.40;;
12958;SDS011;6544;51.666;6.634;2022-07-18T06:44:07;10.38;;;3.42;;
12958;SDS011;6544;51.666;6.634;2022-07-18T06:46:34;11.63;;;3.63;;
12958;SDS011;6544;51.666;6.634;2022-07-18T06:49:04;9.45;;;3.42;;
12958;SDS011;6544;51.666;6.634;2022-07-18T06:51:31;8.45;;;2.85;;
12958;SDS011;6544;51.666;6.634;2022-07-18T06:53:58;11.27;;;3.00;;
12958;SDS011;6544;51.666;6.634;2022-07-18T06:56:25;11.18;;;3.30;;
12958;SDS011;6544;51.666;6.634;2022-07-18T06:58:53;10.20;;;2.70;;
12958;SDS011;6544;51.666;6.634;2022-07-18T07:01:20;9.07;;;3.40;;
12958;SDS011;6544;51.666;6.634;2022-07-18T07:03:49;9.32;;;3.10;;
12958;SDS011;6544;51.666;6.634;2022-07-18T07:06:18;10.77;;;3.33;;
12958;SDS011;6544;51.666;6.634;2022-07-18T07:08:45;9.55;;;3.40;;
12958;SDS011;6544;51.666;6.634;2022-07-18T07:11:12;12.82;;;3.13;;
12958;SDS011;6544;51.666;6.634;2022-07-18T07:13:39;5.75;;;2.90;;
12958;SDS011;6544;51.666;6.634;2022-07-18T07:16:06;12.25;;;3.38;;
12958;SDS011;6544;51.666;6.634;2022-07-18T07:18:34;8.95;;;3.15;;
12958;SDS011;6544;51.666;6.634;2022-07-18T07:21:01;10.70;;;3.80;;
12958;SDS011;6544;51.666;6.634;2022-07-18T07:23:30;10.43;;;3.13;;
12958;SDS011;6544;51.666;6.634;2022-07-18T07:25:57;11.35;;;3.03;;
12958;SDS011;6544;51.666;6.634;2022-07-18T07:28:24;11.07;;;3.08;;
12958;SDS011;6544;51.666;6.634;2022-07-18T07:30:51;10.75;;;3.22;;
12958;SDS011;6544;51.666;6.634;2022-07-18T07:33:18;12.07;;;3.25;;
12958;SDS011;6544;51.666;6.634;2022-07-18T07:35:48;7.53;;;2.60;;
12958;SDS011;6544;51.666;6.634;2022-07-18T07:38:15;9.73;;;2.75;;
12958;SDS011;6544;51.666;6.634;2022-07-18T07:40:45;8.07;;;2.90;;
12958;SDS011;6544;51.666;6.634;2022-07-18T07:43:13;6.22;;;2.60;;
12958;SDS011;6544;51.666;6.634;2022-07-18T07:45:42;4.00;;;2.25;;
12958;SDS011;6544;51.666;6.634;2022-07-18T07:48:11;10.10;;;2.83;;
12958;SDS011;6544;51.666;6.634;2022-07-18T07:50:38;6.50;;;2.47;;
12958;SDS011;6544;51.666;6.634;2022-07-18T07:53:05;7.47;;;2.55;;
12958;SDS011;6544;51.666;6.634;2022-07-18T07:55:32;10.00;;;2.60;;
12958;SDS011;6544;51.666;6.634;2022-07-18T07:58:00;9.43;;;2.33;;
12958;SDS011;6544;51.666;6.634;2022-07-18T08:00:30;5.65;;;2.50;;
12958;SDS011;6544;51.666;6.634;2022-07-18T08:02:58;7.97;;;2.22;;
12958;SDS011;6544;51.666;6.634;2022-07-18T08:05:27;4.93;;;2.38;;
12958;SDS011;6544;51.666;6.634;2022-07-18T08:07:55;6.18;;;3.00;;
12958;SDS011;6544;51.666;6.634;2022-07-18T08:10:22;5.60;;;2.70;;
12958;SDS011;6544;51.666;6.634;2022-07-18T08:12:50;7.35;;;2.60;;
12958;SDS011;6544;51.666;6.634;2022-07-18T08:15:18;5.78;;;2.58;;
12958;SDS011;6544;51.666;6.634;2022-07-18T08:17:46;6.18;;;2.63;;
12958;SDS011;6544;51.666;6.634;2022-07-18T08:20:13;7.60;;;2.42;;
12958;SDS011;6544;51.666;6.634;2022-07-18T08:22:51;7.38;;;2.47;;
12958;SDS011;6544;51.666;6.634;2022-07-18T08:25:23;6.18;;;2.20;;
12958;SDS011;6544;51.666;6.634;2022-07-18T08:27:51;8.05;;;2.80;;
12958;SDS011;6544;51.666;6.634;2022-07-18T08:30:19;6.43;;;2.28;;
12958;SDS011;6544;51.666;6.634;2022-07-18T08:32:47;7.65;;;2.72;;
12958;SDS011;6544;51.666;6.634;2022-07-18T08:35:14;8.07;;;2.58;;
12958;SDS011;6544;51.666;6.634;2022-07-18T08:37:42;9.00;;;2.90;;
12958;SDS011;6544;51.666;6.634;2022-07-18T08:40:09;9.20;;;3.00;;
12958;SDS011;6544;51.666;6.634;2022-07-18T08:42:37;7.82;;;2.90;;
12958;SDS011;6544;51.666;6.634;2022-07-18T08:45:04;7.85;;;2.72;;
12958;SDS011;6544;51.666;6.634;2022-07-18T08:47:34;7.15;;;2.60;;
12958;SDS011;6544;51.666;6.634;2022-07-18T08:50:01;5.07;;;2.58;;
12958;SDS011;6544;51.666;6.634;2022-07-18T08:52:29;11.30;;;2.70;;
12958;SDS011;6544;51.666;6.634;2022-07-18T08:54:56;8.63;;;3.00;;
12958;SDS011;6544;51.666;6.634;2022-07-18T08:57:23;6.40;;;2.70;;
12958;SDS011;6544;51.666;6.634;2022-07-18T08:59:50;10.27;;;2.63;;
12958;SDS011;6544;51.666;6.634;2022-07-18T09:02:17;4.95;;;2.60;;
12958;SDS011;6544;51.666;6.634;2022-07-18T09:04:45;8.95;;;2.53;;
12958;SDS011;6544;51.666;6.634;2022-07-18T09:07:23;5.55;;;2.38;;
12958;SDS011;6544;51.666;6.634;2022-07-18T09:09:53;4.30;;;2.08;;
12958;SDS011;6544;51.666;6.634;2022-07-18T09:12:21;7.80;;;2.00;;
12958;SDS011;6544;51.666;6.634;2022-07-18T09:14:48;6.35;;;2.17;;
12958;SDS011;6544;51.666;6.634;2022-07-18T09:17:16;13.45;;;2.22;;
12958;SDS011;6544;51.666;6.634;2022-07-18T09:19:57;4.65;;;1.98;;
12958;SDS011;6544;51.666;6.634;2022-07-18T09:22:27;5.30;;;1.80;;
12958;SDS011;6544;51.666;6.634;2022-07-18T09:24:56;5.50;;;2.20;;
12958;SDS011;6544;51.666;6.634;2022-07-18T09:27:29;5.80;;;2.15;;
12958;SDS011;6544;51.666;6.634;2022-07-18T09:32:44;8.27;;;2.28;;
12958;SDS011;6544;51.666;6.634;2022-07-18T09:35:14;4.57;;;1.98;;
12958;SDS011;6544;51.666;6.634;2022-07-18T09:37:51;7.40;;;2.30;;
12958;SDS011;6544;51.666;6.634;2022-07-18T09:40:30;4.10;;;1.77;;
12958;SDS011;6544;51.666;6.634;2022-07-18T09:43:00;4.47;;;1.83;;
12958;SDS011;6544;51.666;6.634;2022-07-18T09:45:30;3.63;;;1.88;;
12958;SDS011;6544;51.666;6.634;2022-07-18T09:47:59;5.15;;;1.85;;
12958;SDS011;6544;51.666;6.634;2022-07-18T09:50:32;4.25;;;1.67;;
12958;SDS011;6544;51.666;6.634;2022-07-18T09:53:05;7.53;;;1.73;;
12958;SDS011;6544;51.666;6.634;2022-07-18T09:55:41;3.47;;;1.67;;
12958;SDS011;6544;51.666;6.634;2022-07-18T09:58:15;4.35;;;1.80;;
12958;SDS011;6544;51.666;6.634;2022-07-18T10:00:44;4.30;;;1.75;;
12958;SDS011;6544;51.666;6.634;2022-07-18T10:03:11;5.55;;;1.60;;
12958;SDS011;6544;51.666;6.634;2022-07-18T10:05:40;5.47;;;1.77;;
12958;SDS011;6544;51.666;6.634;2022-07-18T10:08:08;5.70;;;1.98;;
12958;SDS011;6544;51.666;6.634;2022-07-18T10:10:37;3.45;;;1.70;;
12958;SDS011;6544;51.666;6.634;2022-07-18T10:13:06;4.43;;;1.70;;
12958;SDS011;6544;51.666;6.634;2022-07-18T10:15:35;4.82;;;1.98;;
12958;SDS011;6544;51.666;6.634;2022-07-18T10:18:03;5.05;;;1.75;;
12958;SDS011;6544;51.666;6.634;2022-07-18T10:20:33;4.32;;;1.90;;
12958;SDS011;6544;51.666;6.634;2022-07-18T10:23:16;7.30;;;1.88;;
12958;SDS011;6544;51.666;6.634;2022-07-18T10:25:46;6.95;;;2.00;;
12958;SDS011;6544;51.666;6.634;2022-07-18T10:28:36;5.65;;;1.70;;
12958;SDS011;6544;51.666;6.634;2022-07-18T10:31:35;5.80;;;1.85;;
12958;SDS011;6544;51.666;6.634;2022-07-18T10:34:09;5.38;;;1.98;;
12958;SDS011;6544;51.666;6.634;2022-07-18T10:36:37;4.95;;;2.28;;
12958;SDS011;6544;51.666;6.634;2022-07-18T10:39:07;5.22;;;1.75;;
12958;SDS011;6544;51.666;6.634;2022-07-18T10:44:42;4.55;;;1.92;;
12958;SDS011;6544;51.666;6.634;2022-07-18T10:47:10;4.38;;;2.03;;
12958;SDS011;6544;51.666;6.634;2022-07-18T10:55:31;3.50;;;1.80;;
12958;SDS011;6544;51.666;6.634;2022-07-18T10:58:17;5.90;;;1.80;;
12958;SDS011;6544;51.666;6.634;2022-07-18T11:00:46;5.30;;;1.75;;
12958;SDS011;6544;51.666;6.634;2022-07-18T11:03:16;3.50;;;1.70;;
12958;SDS011;6544;51.666;6.634;2022-07-18T11:05:52;3.08;;;1.70;;
12958;SDS011;6544;51.666;6.634;2022-07-18T11:08:21;3.45;;;1.50;;
12958;SDS011;6544;51.666;6.634;2022-07-18T11:11:10;3.38;;;1.75;;
12958;SDS011;6544;51.666;6.634;2022-07-18T11:13:40;4.30;;;1.77;;
12958;SDS011;6544;51.666;6.634;2022-07-18T11:16:16;3.95;;;1.70;;
12958;SDS011;6544;51.666;6.634;2022-07-18T11:21:44;1.95;;;1.60;;
12958;SDS011;6544;51.666;6.634;2022-07-18T11:24:12;4.68;;;1.98;;
12958;SDS011;6544;51.666;6.634;2022-07-18T11:26:44;6.28;;;1.75;;
12958;SDS011;6544;51.666;6.634;2022-07-18T11:29:13;2.80;;;1.58;;
12958;SDS011;6544;51.666;6.634;2022-07-18T11:31:43;6.25;;;1.75;;
12958;SDS011;6544;51.666;6.634;2022-07-18T11:34:12;5.20;;;1.95;;
12958;SDS011;6544;51.666;6.634;2022-07-18T11:36:40;2.70;;;1.90;;
12958;SDS011;6544;51.666;6.634;2022-07-18T11:39:08;3.67;;;1.73;;
12958;SDS011;6544;51.666;6.634;2022-07-18T11:41:36;5.35;;;1.80;;
12958;SDS011;6544;51.666;6.634;2022-07-18T11:44:16;3.85;;;1.70;;
12958;SDS011;6544;51.666;6.634;2022-07-18T11:46:46;3.25;;;1.70;;
12958;SDS011;6544;51.666;6.634;2022-07-18T11:49:13;5.18;;;1.73;;
12958;SDS011;6544;51.666;6.634;2022-07-18T11:51:41;5.82;;;2.00;;
12958;SDS011;6544;51.666;6.634;2022-07-18T11:54:09;6.50;;;2.20;;
12958;SDS011;6544;51.666;6.634;2022-07-18T11:56:47;4.47;;;1.90;;
12958;SDS011;6544;51.666;6.634;2022-07-18T11:59:16;2.70;;;1.70;;
12958;SDS011;6544;51.666;6.634;2022-07-18T12:01:43;4.63;;;1.90;;
12958;SDS011;6544;51.666;6.634;2022-07-18T12:04:14;3.20;;;1.80;;
12958;SDS011;6544;51.666;6.634;2022-07-18T12:06:44;4.82;;;2.03;;
12958;SDS011;6544;51.666;6.634;2022-07-18T12:09:11;5.20;;;1.88;;
12958;SDS011;6544;51.666;6.634;2022-07-18T12:11:51;4.72;;;1.95;;
12958;SDS011;6544;51.666;6.634;2022-07-18T12:14:20;3.40;;;1.83;;
12958;SDS011;6544;51.666;6.634;2022-07-18T12:16:47;4.15;;;2.50;;
12958;SDS011;6544;51.666;6.634;2022-07-18T12:19:16;5.18;;;2.17;;
12958;SDS011;6544;51.666;6.634;2022-07-18T12:21:48;7.35;;;2.00;;
12958;SDS011;6544;51.666;6.634;2022-07-18T12:24:18;4.20;;;2.00;;
12958;SDS011;6544;51.666;6.634;2022-07-18T12:26:45;3.17;;;1.85;;
12958;SDS011;6544;51.666;6.634;2022-07-18T12:29:13;3.95;;;1.92;;
12958;SDS011;6544;51.666;6.634;2022-07-18T12:31:45;8.55;;;2.03;;
12958;SDS011;6544;51.666;6.634;2022-07-18T12:34:13;3.75;;;2.10;;
12958;SDS011;6544;51.666;6.634;2022-07-18T12:36:51;3.67;;;2.10;;
12958;SDS011;6544;51.666;6.634;2022-07-18T12:39:29;4.00;;;2.20;;
12958;SDS011;6544;51.666;6.634;2022-07-18T12:41:57;4.43;;;2.25;;
12958;SDS011;6544;51.666;6.634;2022-07-18T12:44:25;6.82;;;2.00;;
12958;SDS011;6544;51.666;6.634;2022-07-18T12:46:54;3.17;;;1.90;;
12958;SDS011;6544;51.666;6.634;2022-07-18T12:49:21;3.83;;;1.85;;
12958;SDS011;6544;51.666;6.634;2022-07-18T12:51:48;3.67;;;2.00;;
12958;SDS011;6544;51.666;6.634;2022-07-18T12:54:17;5.57;;;2.05;;
12958;SDS011;6544;51.666;6.634;2022-07-18T12:56:44;3.53;;;1.90;;
12958;SDS011;6544;51.666;6.634;2022-07-18T12:59:11;4.32;;;1.92;;
12958;SDS011;6544;51.666;6.634;2022-07-18T13:01:38;5.40;;;2.10;;
12958;SDS011;6544;51.666;6.634;2022-07-18T13:04:06;3.00;;;1.80;;
12958;SDS011;6544;51.666;6.634;2022-07-18T13:06:34;7.30;;;1.95;;
12958;SDS011;6544;51.666;6.634;2022-07-18T13:09:02;4.18;;;1.92;;
12958;SDS011;6544;51.666;6.634;2022-07-18T13:11:29;3.33;;;1.90;;
12958;SDS011;6544;51.666;6.634;2022-07-18T13:13:56;5.68;;;1.80;;
12958;SDS011;6544;51.666;6.634;2022-07-18T13:16:23;12.93;;;2.08;;
12958;SDS011;6544;51.666;6.634;2022-07-18T13:18:50;7.85;;;1.98;;
12958;SDS011;6544;51.666;6.634;2022-07-18T13:21:19;13.20;;;2.20;;
12958;SDS011;6544;51.666;6.634;2022-07-18T13:23:46;4.95;;;2.00;;
12958;SDS011;6544;51.666;6.634;2022-07-18T13:26:13;5.43;;;2.25;;
12958;SDS011;6544;51.666;6.634;2022-07-18T13:28:39;3.63;;;1.92;;
12958;SDS011;6544;51.666;6.634;2022-07-18T13:31:07;6.82;;;1.92;;
12958;SDS011;6544;51.666;6.634;2022-07-18T13:33:35;3.28;;;2.00;;
12958;SDS011;6544;51.666;6.634;2022-07-18T13:36:02;3.90;;;1.80;;
12958;SDS011;6544;51.666;6.634;2022-07-18T13:38:30;3.70;;;2.20;;
12958;SDS011;6544;51.666;6.634;2022-07-18T13:40:57;4.80;;;1.90;;
12958;SDS011;6544;51.666;6.634;2022-07-18T13:43:24;7.28;;;2.10;;
12958;SDS011;6544;51.666;6.634;2022-07-18T13:45:54;4.90;;;2.13;;
12958;SDS011;6544;51.666;6.634;2022-07-18T13:48:21;8.38;;;2.00;;
12958;SDS011;6544;51.666;6.634;2022-07-18T13:50:48;5.10;;;2.00;;
12958;SDS011;6544;51.666;6.634;2022-07-18T13:53:15;6.25;;;2.38;;
12958;SDS011;6544;51.666;6.634;2022-07-18T13:55:43;7.32;;;2.05;;
12958;SDS011;6544;51.666;6.634;2022-07-18T13:58:10;7.03;;;1.90;;
12958;SDS011;6544;51.666;6.634;2022-07-18T14:00:37;5.03;;;1.80;;
12958;SDS011;6544;51.666;6.634;2022-07-18T14:03:05;8.13;;;1.90;;
12958;SDS011;6544;51.666;6.634;2022-07-18T14:05:33;12.73;;;2.25;;
12958;SDS011;6544;51.666;6.634;2022-07-18T14:08:00;6.55;;;2.30;;
12958;SDS011;6544;51.666;6.634;2022-07-18T14:10:27;6.88;;;1.90;;
12958;SDS011;6544;51.666;6.634;2022-07-18T14:12:55;6.57;;;1.80;;
12958;SDS011;6544;51.666;6.634;2022-07-18T14:15:22;4.35;;;2.15;;
12958;SDS011;6544;51.666;6.634;2022-07-18T14:17:49;6.03;;;1.85;;
12958;SDS011;6544;51.666;6.634;2022-07-18T14:20:16;5.47;;;2.00;;
12958;SDS011;6544;51.666;6.634;2022-07-18T14:22:46;6.90;;;2.42;;
12958;SDS011;6544;51.666;6.634;2022-07-18T14:25:15;6.95;;;2.20;;
12958;SDS011;6544;51.666;6.634;2022-07-18T14:27:43;7.35;;;1.90;;
12958;SDS011;6544;51.666;6.634;2022-07-18T14:30:14;3.25;;;1.83;;
12958;SDS011;6544;51.666;6.634;2022-07-18T14:32:42;5.13;;;1.88;;
12958;SDS011;6544;51.666;6.634;2022-07-18T14:35:12;6.05;;;2.58;;
12958;SDS011;6544;51.666;6.634;2022-07-18T14:37:39;4.55;;;1.92;;
12958;SDS011;6544;51.666;6.634;2022-07-18T14:40:07;2.90;;;1.80;;
12958;SDS011;6544;51.666;6.634;2022-07-18T14:42:34;2.92;;;1.80;;
12958;SDS011;6544;51.666;6.634;2022-07-18T14:45:01;7.28;;;1.98;;
12958;SDS011;6544;51.666;6.634;2022-07-18T14:47:31;3.58;;;1.95;;
12958;SDS011;6544;51.666;6.634;2022-07-18T14:50:00;2.22;;;1.67;;
12958;SDS011;6544;51.666;6.634;2022-07-18T14:52:28;3.95;;;2.05;;
12958;SDS011;6544;51.666;6.634;2022-07-18T14:54:55;5.03;;;2.05;;
12958;SDS011;6544;51.666;6.634;2022-07-18T14:57:22;6.75;;;1.75;;
12958;SDS011;6544;51.666;6.634;2022-07-18T14:59:49;4.18;;;2.05;;
12958;SDS011;6544;51.666;6.634;2022-07-18T15:02:16;7.72;;;1.90;;
12958;SDS011;6544;51.666;6.634;2022-07-18T15:04:44;4.55;;;1.90;;
12958;SDS011;6544;51.666;6.634;2022-07-18T15:07:13;4.82;;;1.98;;
12958;SDS011;6544;51.666;6.634;2022-07-18T15:09:40;10.13;;;2.10;;
12958;SDS011;6544;51.666;6.634;2022-07-18T15:12:07;3.53;;;1.92;;
12958;SDS011;6544;51.666;6.634;2022-07-18T15:14:34;6.60;;;2.40;;
12958;SDS011;6544;51.666;6.634;2022-07-18T15:17:01;4.38;;;2.60;;
12958;SDS011;6544;51.666;6.634;2022-07-18T15:19:28;2.67;;;1.95;;
12958;SDS011;6544;51.666;6.634;2022-07-18T15:21:56;4.30;;;2.05;;